createdAt,value
2022-08-20T00:02:09.547Z,59.95
2022-08-20T00:04:36.564Z,59.88
2022-08-20T00:07:06.468Z,60.16
2022-08-20T00:09:36.918Z,60.31
2022-08-20T00:12:05.703Z,60.19
2022-08-20T00:14:33.956Z,59.85
2022-08-20T00:17:01.377Z,59.96
2022-08-20T00:19:28.173Z,60.27
2022-08-20T00:21:57.978Z,60.31
2022-08-20T00:24:24.969Z,60.38
2022-08-20T00:26:52.557Z,60.82
2022-08-20T00:29:20.236Z,60.69
2022-08-20T00:31:46.875Z,60.98
2022-08-20T00:34:13.388Z,61.05
2022-08-20T00:36:40.000Z,61.21
2022-08-20T00:39:06.563Z,61.62
2022-08-20T00:41:33.096Z,61.51
2022-08-20T00:44:05.630Z,61.62
2022-08-20T00:46:32.272Z,62.03
2022-08-20T00:48:59.875Z,62.43
2022-08-20T00:51:44.185Z,62.61
2022-08-20T00:54:24.912Z,62.99
2022-08-20T00:57:03.519Z,62.87
2022-08-20T00:59:33.256Z,62.71
2022-08-20T01:02:01.302Z,63.10
2022-08-20T01:04:33.797Z,63.57
2022-08-20T01:07:00.928Z,64.40
2022-08-20T01:09:49.469Z,64.33
2022-08-20T01:12:15.607Z,63.93
2022-08-20T01:14:46.234Z,63.63
2022-08-20T01:17:19.771Z,63.82
2022-08-20T01:19:50.249Z,64.41
2022-08-20T01:22:43.935Z,63.72
2022-08-20T01:25:16.871Z,63.39
2022-08-20T01:27:45.085Z,63.07
2022-08-20T01:30:12.766Z,63.00
2022-08-20T01:32:39.399Z,63.04
2022-08-20T01:35:06.916Z,62.86
2022-08-20T01:37:33.420Z,63.31
2022-08-20T01:40:00.624Z,63.19
2022-08-20T01:42:35.963Z,63.45
2022-08-20T01:45:05.709Z,64.04
2022-08-20T01:47:38.427Z,64.91
2022-08-20T01:50:16.798Z,65.15
2022-08-20T01:53:22.253Z,66.68
2022-08-20T01:55:49.057Z,66.64
2022-08-20T01:58:15.647Z,68.12
2022-08-20T02:00:43.677Z,68.39
2022-08-20T02:03:10.211Z,69.54
2022-08-20T02:05:36.748Z,70.39
2022-08-20T02:08:04.517Z,69.51
2022-08-20T02:10:33.829Z,70.01
2022-08-20T02:13:01.028Z,71.41
2022-08-20T02:15:34.464Z,72.24
2022-08-20T02:18:08.273Z,72.18
2022-08-20T02:20:35.979Z,71.67
2022-08-20T02:23:03.706Z,71.48
2022-08-20T02:25:32.800Z,73.64
2022-08-20T02:28:02.414Z,76.36
2022-08-20T02:30:33.381Z,75.21
2022-08-20T02:33:01.814Z,77.13
2022-08-20T02:35:30.676Z,77.33
2022-08-20T02:38:01.283Z,77.49
2022-08-20T02:40:30.996Z,76.77
2022-08-20T02:43:01.917Z,76.35
2022-08-20T02:45:29.899Z,76.87
2022-08-20T02:47:57.631Z,75.89
2022-08-20T02:50:26.140Z,74.69
2022-08-20T02:52:52.710Z,73.24
2022-08-20T02:55:26.985Z,73.23
2022-08-20T02:58:00.078Z,73.80
2022-08-20T03:00:28.341Z,76.99
2022-08-20T03:02:54.861Z,75.58
2022-08-20T03:05:21.402Z,76.56
2022-08-20T03:07:50.562Z,75.36
2022-08-20T03:10:17.564Z,74.40
2022-08-20T03:12:44.113Z,74.36
2022-08-20T03:15:17.514Z,76.60
2022-08-20T03:17:44.775Z,77.67
2022-08-20T03:20:13.167Z,77.99
2022-08-20T03:22:40.167Z,78.18
2022-08-20T03:25:07.686Z,78.44
2022-08-20T03:27:36.489Z,78.25
2022-08-20T03:30:07.118Z,76.45
2022-08-20T03:32:33.676Z,75.33
2022-08-20T03:35:01.788Z,75.54
2022-08-20T03:37:31.375Z,73.39
2022-08-20T03:39:58.791Z,73.33
2022-08-20T03:42:25.822Z,73.93
2022-08-20T03:44:58.579Z,75.10
2022-08-20T03:47:26.306Z,75.74
2022-08-20T03:49:55.944Z,75.11
2022-08-20T03:52:22.398Z,76.06
2022-08-20T03:54:49.412Z,74.41
2022-08-20T03:57:16.499Z,75.20
2022-08-20T03:59:44.517Z,74.79
2022-08-20T04:02:12.240Z,75.65
2022-08-20T04:04:41.004Z,74.59
2022-08-20T04:07:13.185Z,74.26
2022-08-20T04:09:39.975Z,74.62
2022-08-20T04:12:07.474Z,74.86
2022-08-20T04:14:36.283Z,76.01
2022-08-20T04:17:08.579Z,76.63
2022-08-20T04:19:36.602Z,77.19
2022-08-20T04:22:03.203Z,78.19
2022-08-20T04:24:32.449Z,79.66
2022-08-20T04:27:00.126Z,82.19
2022-08-20T04:29:32.689Z,83.07
2022-08-20T04:32:00.633Z,84.26
2022-08-20T04:34:29.923Z,85.03
2022-08-20T04:36:56.809Z,85.04
2022-08-20T04:39:23.728Z,85.41
2022-08-20T04:41:50.295Z,85.38
2022-08-20T04:44:16.767Z,84.59
2022-08-20T04:46:43.668Z,84.60
2022-08-20T04:51:37.127Z,82.72
2022-08-20T04:54:04.529Z,82.32
2022-08-20T04:56:34.816Z,82.22
2022-08-20T04:59:01.730Z,81.94
2022-08-20T05:01:28.399Z,82.14
2022-08-20T05:03:55.782Z,81.59
2022-08-20T05:06:30.946Z,82.70
2022-08-20T05:09:00.785Z,82.38
2022-08-20T05:11:35.966Z,83.25
2022-08-20T05:14:09.469Z,84.25
2022-08-20T05:16:39.291Z,83.18
2022-08-20T05:19:10.480Z,83.20
2022-08-20T05:21:37.509Z,82.49
2022-08-20T05:24:05.092Z,84.61
2022-08-20T05:26:33.237Z,82.60
2022-08-20T05:29:02.217Z,83.29
2022-08-20T05:31:32.603Z,83.28
2022-08-20T05:34:10.793Z,82.94
2022-08-20T05:36:44.173Z,80.93
2022-08-20T05:39:11.630Z,80.93
2022-08-20T05:41:39.823Z,80.58
2022-08-20T05:44:11.379Z,81.27
2022-08-20T05:46:41.258Z,80.60
2022-08-20T05:49:16.362Z,82.06
2022-08-20T05:51:46.856Z,82.81
2022-08-20T05:54:14.078Z,82.98
2022-08-20T05:56:42.528Z,83.73
2022-08-20T05:59:10.545Z,84.09
2022-08-20T06:01:38.767Z,85.06
2022-08-20T06:04:25.817Z,84.90
2022-08-20T06:06:54.931Z,85.46
2022-08-20T06:09:30.921Z,85.23
2022-08-20T06:11:59.966Z,85.37
2022-08-20T06:14:27.527Z,85.00
2022-08-20T06:16:57.766Z,84.54
2022-08-20T06:19:26.535Z,83.37
2022-08-20T06:21:53.954Z,83.15
2022-08-20T06:24:23.312Z,83.68
2022-08-20T06:26:55.968Z,84.24
2022-08-20T06:29:22.472Z,84.17
2022-08-20T06:31:51.285Z,84.09
2022-08-20T06:34:18.846Z,83.94
2022-08-20T06:36:46.818Z,82.72
2022-08-20T06:39:15.267Z,82.37
2022-08-20T06:41:42.306Z,82.40
2022-08-20T06:44:08.949Z,82.05
2022-08-20T06:46:36.197Z,81.63
2022-08-20T06:49:04.569Z,81.15
2022-08-20T06:51:32.609Z,81.48
2022-08-20T06:53:59.187Z,80.48
2022-08-20T06:56:25.756Z,82.13
2022-08-20T06:58:52.314Z,81.47
2022-08-20T07:01:21.015Z,82.75
2022-08-20T07:03:54.780Z,81.98
2022-08-20T07:06:25.531Z,82.51
2022-08-20T07:08:53.311Z,83.41
2022-08-20T07:11:24.961Z,82.98
2022-08-20T07:13:54.245Z,83.15
2022-08-20T07:16:20.748Z,84.14
2022-08-20T07:18:47.230Z,84.21
2022-08-20T07:21:13.829Z,84.13
2022-08-20T07:23:42.163Z,84.26
2022-08-20T07:26:08.717Z,84.50
2022-08-20T07:28:35.336Z,83.93
2022-08-20T07:31:20.998Z,84.29
2022-08-20T07:33:47.712Z,83.84
2022-08-20T07:36:18.242Z,83.88
2022-08-20T07:38:50.943Z,83.68
2022-08-20T07:41:17.612Z,83.73
2022-08-20T07:43:45.961Z,83.67
2022-08-20T07:46:20.812Z,82.43
2022-08-20T07:48:50.107Z,81.90
2022-08-20T07:51:22.474Z,82.43
2022-08-20T07:53:50.631Z,81.45
2022-08-20T07:56:22.521Z,80.38
2022-08-20T07:59:00.033Z,79.81
2022-08-20T08:01:32.734Z,79.63
2022-08-20T08:04:00.103Z,77.80
2022-08-20T08:06:31.895Z,77.88
2022-08-20T08:09:10.272Z,75.39
2022-08-20T08:11:39.441Z,74.33
2022-08-20T08:14:08.366Z,76.45
2022-08-20T08:16:36.242Z,77.11
2022-08-20T08:19:07.008Z,75.12
2022-08-20T08:21:33.584Z,75.30
2022-08-20T08:24:00.549Z,75.48
2022-08-20T08:26:29.189Z,75.57
2022-08-20T08:28:56.708Z,75.63
2022-08-20T08:31:25.215Z,75.55
2022-08-20T08:33:51.779Z,75.77
2022-08-20T08:36:18.359Z,75.19
2022-08-20T08:38:45.852Z,75.29
2022-08-20T08:41:20.924Z,75.30
2022-08-20T08:43:50.605Z,75.38
2022-08-20T08:46:22.646Z,74.75
2022-08-20T08:48:53.418Z,75.17
2022-08-20T08:51:29.271Z,75.31
2022-08-20T08:53:56.851Z,74.89
2022-08-20T08:56:30.678Z,74.20
2022-08-20T08:59:08.638Z,74.15
2022-08-20T09:01:54.752Z,74.15
2022-08-20T09:04:27.169Z,73.66
2022-08-20T09:06:56.515Z,74.33
2022-08-20T09:09:34.111Z,73.57
2022-08-20T09:12:07.862Z,72.99
2022-08-20T09:14:35.021Z,73.65
2022-08-20T09:17:01.648Z,73.40
2022-08-20T09:19:28.495Z,73.73
2022-08-20T09:21:55.118Z,72.76
2022-08-20T09:24:21.604Z,72.45
2022-08-20T09:26:48.078Z,71.49
2022-08-20T09:29:15.051Z,71.53
2022-08-20T09:31:41.767Z,71.25
2022-08-20T09:34:08.572Z,70.61
2022-08-20T09:36:37.485Z,70.99
2022-08-20T09:39:04.256Z,69.81
2022-08-20T09:41:33.822Z,68.97
2022-08-20T09:44:01.430Z,69.13
2022-08-20T09:46:27.925Z,69.98
2022-08-20T09:48:54.990Z,70.79
2022-08-20T09:51:21.876Z,71.02
2022-08-20T09:53:48.983Z,70.92
2022-08-20T09:56:15.640Z,70.37
2022-08-20T09:58:50.726Z,70.53
2022-08-20T10:01:19.854Z,70.40
2022-08-20T10:03:52.101Z,70.19
2022-08-20T10:06:20.937Z,69.06
2022-08-20T10:08:49.858Z,69.52
2022-08-20T10:11:18.020Z,69.51
2022-08-20T10:13:44.620Z,68.47
2022-08-20T10:16:11.138Z,68.94
2022-08-20T10:18:37.692Z,69.28
2022-08-20T10:21:09.586Z,68.12
2022-08-20T10:23:36.060Z,68.69
2022-08-20T10:26:02.560Z,67.77
2022-08-20T10:28:29.077Z,67.57
2022-08-20T10:30:55.545Z,67.24
2022-08-20T10:33:22.221Z,66.51
2022-08-20T10:35:48.688Z,65.35
2022-08-20T10:38:15.754Z,64.57
2022-08-20T10:40:42.602Z,64.47
2022-08-20T10:43:18.768Z,62.83
2022-08-20T10:45:45.283Z,61.58
2022-08-20T10:48:11.750Z,61.50
2022-08-20T10:50:38.235Z,61.44
2022-08-20T10:53:04.781Z,61.27
2022-08-20T10:55:31.246Z,61.24
2022-08-20T10:57:59.322Z,59.97
2022-08-20T11:00:26.349Z,58.92
2022-08-20T11:02:52.821Z,59.88
2022-08-20T11:05:19.818Z,57.35
2022-08-20T11:07:54.711Z,58.16
2022-08-20T11:10:24.191Z,57.45
2022-08-20T11:12:50.857Z,58.07
2022-08-20T11:15:17.367Z,58.44
2022-08-20T11:17:44.263Z,58.26
2022-08-20T11:20:19.079Z,59.40
2022-08-20T11:22:45.896Z,59.67
2022-08-20T11:25:13.675Z,59.24
2022-08-20T11:27:43.189Z,58.05
2022-08-20T11:30:16.224Z,58.25
2022-08-20T11:32:42.751Z,58.43
2022-08-20T11:35:40.450Z,57.17
2022-08-20T11:37:57.266Z,56.39
2022-08-20T11:40:24.918Z,57.33
2022-08-20T11:43:13.766Z,55.83
2022-08-20T11:45:38.565Z,55.39
2022-08-20T11:48:05.482Z,56.28
2022-08-20T11:50:32.155Z,56.46
2022-08-20T11:53:01.547Z,56.33
2022-08-20T11:55:30.476Z,56.32
2022-08-20T11:57:59.795Z,56.29
2022-08-20T12:00:32.039Z,57.05
2022-08-20T12:03:01.318Z,57.49
2022-08-20T12:05:29.830Z,54.45
2022-08-20T12:07:57.447Z,56.04
2022-08-20T12:10:26.350Z,56.42
2022-08-20T12:12:53.013Z,57.95
2022-08-20T12:15:21.042Z,55.77
2022-08-20T12:17:47.622Z,55.92
2022-08-20T12:20:15.910Z,56.86
2022-08-20T12:22:43.811Z,58.02
2022-08-20T12:25:10.546Z,60.51
2022-08-20T12:27:38.210Z,63.36
2022-08-20T12:30:11.635Z,64.92
2022-08-20T12:32:38.558Z,66.59
2022-08-20T12:35:06.963Z,66.62
2022-08-20T12:37:33.557Z,68.00
2022-08-20T12:40:01.355Z,68.27
2022-08-20T12:42:30.329Z,68.12
2022-08-20T12:44:58.002Z,68.17
2022-08-20T12:47:29.839Z,68.93
2022-08-20T12:50:01.080Z,68.56
2022-08-20T12:52:29.695Z,69.72
2022-08-20T12:54:56.820Z,69.82
2022-08-20T12:57:32.616Z,71.01
2022-08-20T13:00:13.533Z,70.21
2022-08-20T13:02:41.344Z,70.56
2022-08-20T13:05:09.392Z,74.95
2022-08-20T13:07:36.372Z,82.12
2022-08-20T13:10:03.979Z,82.54
2022-08-20T13:12:31.072Z,85.89
2022-08-20T13:14:57.616Z,82.18
2022-08-20T13:17:38.140Z,83.48
2022-08-20T13:20:09.605Z,85.09
2022-08-20T13:22:36.498Z,90.95
2022-08-20T13:25:03.974Z,90.79
2022-08-20T13:27:30.551Z,95.87
2022-08-20T13:29:59.047Z,94.61
2022-08-20T13:32:26.067Z,93.78
2022-08-20T13:34:52.682Z,92.42
2022-08-20T13:37:25.098Z,92.93
2022-08-20T13:39:52.678Z,96.46
2022-08-20T13:42:19.822Z,94.22
2022-08-20T13:44:46.418Z,93.93
2022-08-20T13:47:34.655Z,93.47
2022-08-20T13:50:15.940Z,94.90
2022-08-20T13:52:43.348Z,93.69
2022-08-20T13:55:12.614Z,93.13
2022-08-20T13:57:40.165Z,95.57
2022-08-20T14:00:13.251Z,93.02
2022-08-20T14:02:40.697Z,94.14
2022-08-20T14:05:07.924Z,94.78
2022-08-20T14:07:34.562Z,93.88
2022-08-20T14:10:09.599Z,93.32
2022-08-20T14:12:38.368Z,95.40
2022-08-20T14:15:08.757Z,91.73
2022-08-20T14:17:38.646Z,90.17
2022-08-20T14:20:14.167Z,90.06
2022-08-20T14:22:42.363Z,90.42
2022-08-20T14:25:10.514Z,90.73
2022-08-20T14:27:37.437Z,90.11
2022-08-20T14:30:10.829Z,90.04
2022-08-20T14:32:37.400Z,87.39
2022-08-20T14:35:05.376Z,85.72
2022-08-20T14:37:38.125Z,85.99
2022-08-20T14:40:08.046Z,85.84
2022-08-20T14:42:34.920Z,86.84
2022-08-20T14:45:05.039Z,85.17
2022-08-20T14:47:36.834Z,86.24
2022-08-20T14:50:07.667Z,86.41
2022-08-20T14:52:36.607Z,86.54
2022-08-20T14:55:09.742Z,85.84
2022-08-20T14:57:36.690Z,85.58
2022-08-20T15:00:05.448Z,86.78
2022-08-20T15:02:32.460Z,85.64
2022-08-20T15:04:59.085Z,86.82
2022-08-20T15:07:35.531Z,88.43
2022-08-20T15:10:07.849Z,87.52
2022-08-20T15:12:35.309Z,87.26
2022-08-20T15:15:13.424Z,87.56
2022-08-20T15:17:51.776Z,87.35
2022-08-20T15:20:21.129Z,86.63
2022-08-20T15:22:48.463Z,87.41
2022-08-20T15:25:19.636Z,86.89
2022-08-20T15:27:46.881Z,87.63
2022-08-20T15:30:17.382Z,87.75
2022-08-20T15:32:46.141Z,86.44
2022-08-20T15:35:14.495Z,89.04
2022-08-20T15:37:46.511Z,88.68
2022-08-20T15:40:18.228Z,88.03
2022-08-20T15:42:46.801Z,88.12
2022-08-20T15:45:21.516Z,90.28
2022-08-20T15:47:52.528Z,88.10
2022-08-20T15:50:32.777Z,87.39
2022-08-20T15:53:07.090Z,86.89
2022-08-20T15:55:33.687Z,86.56
2022-08-20T15:58:12.713Z,86.10
2022-08-20T16:00:57.255Z,84.96
2022-08-20T16:04:21.519Z,87.26
2022-08-20T16:07:14.789Z,87.44
2022-08-20T16:10:18.398Z,87.96
2022-08-20T16:12:49.267Z,86.86
2022-08-20T16:15:25.501Z,86.86
2022-08-20T16:18:04.377Z,87.54
2022-08-20T16:20:43.057Z,87.19
2022-08-20T16:23:19.440Z,86.55
2022-08-20T16:25:59.381Z,85.46
2022-08-20T16:28:29.082Z,85.28
2022-08-20T16:31:02.970Z,84.93
2022-08-20T16:34:04.228Z,84.14
2022-08-20T16:36:46.422Z,85.24
2022-08-20T16:39:28.629Z,85.04
2022-08-20T16:41:55.830Z,85.09
2022-08-20T16:44:32.171Z,83.36
2022-08-20T16:47:54.353Z,84.05
2022-08-20T16:50:26.902Z,83.65
2022-08-20T16:52:53.715Z,83.54
2022-08-20T16:55:23.429Z,84.32
2022-08-20T16:57:51.613Z,85.03
2022-08-20T17:00:35.747Z,85.16
2022-08-20T17:03:33.490Z,85.57
2022-08-20T17:06:26.926Z,85.30
2022-08-20T17:08:53.419Z,85.08
2022-08-20T17:11:29.287Z,85.12
2022-08-20T17:14:07.917Z,85.67
2022-08-20T17:16:50.595Z,85.91
2022-08-20T17:19:30.379Z,85.53
2022-08-20T17:22:09.205Z,86.47
2022-08-20T17:24:39.760Z,84.83
2022-08-20T17:27:13.372Z,84.79
2022-08-20T17:29:52.172Z,84.15
2022-08-20T17:32:22.853Z,84.02
2022-08-20T17:34:51.684Z,83.95
2022-08-20T17:37:27.053Z,84.63
2022-08-20T17:40:11.633Z,84.73
2022-08-20T17:43:05.196Z,85.74
2022-08-20T17:45:38.862Z,85.35
2022-08-20T17:48:09.103Z,84.95
2022-08-20T17:50:37.933Z,86.47
2022-08-20T17:53:23.705Z,86.96
2022-08-20T17:55:55.279Z,87.84
2022-08-20T17:58:35.538Z,88.86
2022-08-20T18:01:04.613Z,89.56
2022-08-20T18:03:36.648Z,90.17
2022-08-20T18:06:10.696Z,90.28
2022-08-20T18:08:39.219Z,89.96
2022-08-20T18:11:20.975Z,90.93
2022-08-20T18:14:30.601Z,91.54
2022-08-20T18:17:09.027Z,90.32
2022-08-20T18:20:12.199Z,92.03
2022-08-20T18:22:48.983Z,92.25
2022-08-20T18:25:39.562Z,93.05
2022-08-20T18:28:38.775Z,92.22
2022-08-20T18:31:10.479Z,92.14
2022-08-20T18:33:39.813Z,90.66
2022-08-20T18:36:18.226Z,91.24
2022-08-20T18:38:57.858Z,90.44
2022-08-20T18:41:43.860Z,90.84
2022-08-20T18:44:11.812Z,90.20
2022-08-20T18:46:52.203Z,89.76
2022-08-20T18:49:40.715Z,89.75
2022-08-20T18:52:15.909Z,89.98
2022-08-20T18:54:48.935Z,90.26
2022-08-20T18:57:25.886Z,89.61
2022-08-20T19:00:05.493Z,90.07
2022-08-20T19:02:36.534Z,89.24
2022-08-20T19:05:09.649Z,89.09
2022-08-20T19:07:48.113Z,89.73
2022-08-20T19:10:28.515Z,90.01
2022-08-20T19:13:08.366Z,91.74
2022-08-20T19:15:39.631Z,94.20
2022-08-20T19:18:10.521Z,94.84
2022-08-20T19:20:48.854Z,94.02
2022-08-20T19:23:20.442Z,94.17
2022-08-20T19:26:12.583Z,94.95
2022-08-20T19:28:54.424Z,93.94
2022-08-20T19:31:27.606Z,94.68
2022-08-20T19:34:19.516Z,95.57
2022-08-20T19:36:54.305Z,96.59
2022-08-20T19:39:24.794Z,94.92
2022-08-20T19:41:59.280Z,95.10
2022-08-20T19:44:54.918Z,94.25
2022-08-20T19:47:32.836Z,95.97
2022-08-20T19:50:26.499Z,95.72
2022-08-20T19:53:26.435Z,95.61
2022-08-20T19:55:59.208Z,97.47
2022-08-20T19:58:27.588Z,97.10
2022-08-20T20:00:55.557Z,97.00
2022-08-20T20:03:28.070Z,96.24
2022-08-20T20:05:57.415Z,95.65
2022-08-20T20:08:28.822Z,94.78
2022-08-20T20:11:00.532Z,93.48
2022-08-20T20:13:29.665Z,93.43
2022-08-20T20:16:01.847Z,93.64
2022-08-20T20:18:34.419Z,93.80
2022-08-20T20:21:18.208Z,94.07
2022-08-20T20:23:55.190Z,94.46
2022-08-20T20:26:21.996Z,93.63
2022-08-20T20:28:48.524Z,93.97
2022-08-20T20:31:29.955Z,94.11
2022-08-20T20:33:59.257Z,94.76
2022-08-20T20:37:01.143Z,93.29
2022-08-20T20:39:31.328Z,93.42
2022-08-20T20:42:00.130Z,93.89
2022-08-20T20:44:49.058Z,93.60
2022-08-20T20:47:23.473Z,93.99
2022-08-20T20:52:38.158Z,94.76
2022-08-20T20:55:12.907Z,94.84
2022-08-20T20:57:39.903Z,95.16
2022-08-20T21:00:14.717Z,94.94
2022-08-20T21:02:42.090Z,94.86
2022-08-20T21:05:10.491Z,95.99
2022-08-20T21:07:50.356Z,95.88
2022-08-20T21:10:18.585Z,95.24
2022-08-20T21:12:48.064Z,95.27
2022-08-20T21:15:18.718Z,94.39
2022-08-20T21:17:45.344Z,94.48
2022-08-20T21:20:14.384Z,94.73
2022-08-20T21:22:40.951Z,94.97
2022-08-20T21:25:07.912Z,94.34
2022-08-20T21:27:35.089Z,94.93
2022-08-20T21:30:04.351Z,94.59
2022-08-20T21:32:30.839Z,95.05
2022-08-20T21:34:57.348Z,95.05
2022-08-20T21:37:23.923Z,95.02
2022-08-20T21:39:50.464Z,93.64
2022-08-20T21:42:28.338Z,93.61
2022-08-20T21:44:56.640Z,93.61
2022-08-20T21:47:23.144Z,94.56
2022-08-20T21:49:49.625Z,95.47
2022-08-20T21:52:16.181Z,95.76
2022-08-20T21:54:42.646Z,95.10
2022-08-20T21:57:17.719Z,95.55
2022-08-20T21:59:44.279Z,95.63
2022-08-20T22:02:11.218Z,95.87
2022-08-20T22:04:38.137Z,95.10
2022-08-20T22:07:05.401Z,95.59
2022-08-20T22:09:34.120Z,96.30
2022-08-20T22:12:01.816Z,96.69
2022-08-20T22:14:29.227Z,96.60
2022-08-20T22:16:55.722Z,96.16
2022-08-20T22:19:22.314Z,97.20
2022-08-20T22:21:49.534Z,96.34
2022-08-20T22:24:16.029Z,97.00
2022-08-20T22:26:43.379Z,96.91
2022-08-20T22:29:11.216Z,97.11
2022-08-20T22:31:42.840Z,96.24
2022-08-20T22:34:11.961Z,96.17
2022-08-20T22:36:39.057Z,97.29
2022-08-20T22:39:06.943Z,98.93
2022-08-20T22:41:33.585Z,98.99
2022-08-20T22:44:00.539Z,99.52
2022-08-20T22:46:29.089Z,98.42
2022-08-20T22:48:56.233Z,98.75
2022-08-20T22:51:32.277Z,99.09
2022-08-20T22:54:03.844Z,99.38
2022-08-20T22:56:30.641Z,100.00
2022-08-20T22:58:59.105Z,100.00
2022-08-20T23:01:26.445Z,100.00
2022-08-20T23:03:53.196Z,100.00
2022-08-20T23:06:20.052Z,100.00
2022-08-20T23:08:46.917Z,100.00
2022-08-20T23:11:13.447Z,100.00
2022-08-20T23:13:39.934Z,100.00
2022-08-20T23:16:07.208Z,100.00
2022-08-20T23:18:33.954Z,100.00
2022-08-20T23:21:00.790Z,100.00
2022-08-20T23:23:27.606Z,100.00
2022-08-20T23:25:54.674Z,100.00
2022-08-20T23:28:24.772Z,100.00
2022-08-20T23:30:53.927Z,100.00
2022-08-20T23:33:20.436Z,100.00
2022-08-20T23:35:47.136Z,100.00
2022-08-20T23:38:14.373Z,100.00
2022-08-20T23:40:41.537Z,100.00
2022-08-20T23:43:08.662Z,100.00
2022-08-20T23:45:35.326Z,100.00
2022-08-20T23:48:06.479Z,100.00
2022-08-20T23:50:32.978Z,100.00
2022-08-20T23:52:59.661Z,100.00
2022-08-20T23:55:26.520Z,100.00
2022-08-20T23:57:53.033Z,100.00
